createdAt,value
2023-03-19T00:00:27.076Z,3.15
2023-03-19T00:02:53.833Z,3.70
2023-03-19T00:05:20.612Z,2.92
2023-03-19T00:07:47.437Z,4.07
2023-03-19T00:10:14.235Z,2.77
2023-03-19T00:12:41.418Z,5.18
2023-03-19T00:15:12.258Z,5.18
2023-03-19T00:17:38.832Z,5.35
2023-03-19T00:20:06.296Z,4.13
2023-03-19T00:22:32.969Z,4.00
2023-03-19T00:24:59.499Z,4.55
2023-03-19T00:27:26.235Z,4.25
2023-03-19T00:29:52.840Z,5.78
2023-03-19T00:32:19.404Z,4.15
2023-03-19T00:34:46.628Z,5.13
2023-03-19T00:37:13.370Z,5.55
2023-03-19T00:39:40.053Z,4.72
2023-03-19T00:42:07.032Z,4.68
2023-03-19T00:44:33.617Z,5.55
2023-03-19T00:47:02.816Z,5.07
2023-03-19T00:49:29.329Z,3.72
2023-03-19T00:51:56.061Z,3.80
2023-03-19T00:54:22.680Z,3.35
2023-03-19T00:56:49.325Z,3.05
2023-03-19T00:59:15.974Z,2.93
2023-03-19T01:01:43.686Z,2.00
2023-03-19T01:04:11.178Z,2.50
2023-03-19T01:06:37.894Z,3.10
2023-03-19T01:09:04.402Z,2.92
2023-03-19T01:11:32.214Z,3.17
2023-03-19T01:14:00.761Z,2.50
2023-03-19T01:16:27.632Z,3.97
2023-03-19T01:18:54.468Z,3.97
2023-03-19T01:21:21.929Z,4.82
2023-03-19T01:23:52.000Z,3.20
2023-03-19T01:26:19.494Z,4.10
2023-03-19T01:28:48.240Z,4.53
2023-03-19T01:31:15.712Z,3.75
2023-03-19T01:33:57.129Z,5.45
2023-03-19T01:36:38.979Z,4.13
2023-03-19T01:39:07.032Z,4.25
2023-03-19T01:41:33.635Z,4.40
2023-03-19T01:44:38.249Z,4.45
2023-03-19T01:47:43.393Z,4.25
2023-03-19T01:50:32.831Z,4.67
2023-03-19T01:53:18.055Z,3.42
2023-03-19T01:56:16.092Z,4.20
2023-03-19T01:59:16.998Z,3.90
2023-03-19T02:02:11.371Z,5.25
2023-03-19T02:04:41.991Z,5.50
2023-03-19T02:07:09.637Z,6.13
2023-03-19T02:09:37.127Z,4.82
2023-03-19T02:12:04.726Z,4.32
2023-03-19T02:14:31.736Z,4.57
2023-03-19T02:16:58.399Z,5.03
2023-03-19T02:19:39.838Z,4.22
2023-03-19T02:22:08.638Z,6.97
2023-03-19T02:24:41.346Z,5.03
2023-03-19T02:27:12.997Z,5.13
2023-03-19T02:29:42.994Z,7.43
2023-03-19T02:32:09.628Z,5.20
2023-03-19T02:34:39.953Z,5.25
2023-03-19T02:37:28.068Z,5.50
2023-03-19T02:40:08.065Z,4.72
2023-03-19T02:42:34.747Z,4.90
2023-03-19T02:45:01.778Z,5.00
2023-03-19T02:47:28.412Z,5.28
2023-03-19T02:49:55.064Z,7.43
2023-03-19T02:52:22.107Z,6.32
2023-03-19T02:54:48.892Z,4.83
2023-03-19T02:57:15.740Z,4.55
2023-03-19T02:59:42.337Z,6.10
2023-03-19T03:02:10.139Z,5.93
2023-03-19T03:04:39.589Z,5.53
2023-03-19T03:07:06.186Z,5.33
2023-03-19T03:09:32.885Z,6.05
2023-03-19T03:11:59.505Z,6.57
2023-03-19T03:14:26.042Z,5.53
2023-03-19T03:16:52.545Z,5.95
2023-03-19T03:19:20.126Z,5.47
2023-03-19T03:21:46.742Z,6.95
2023-03-19T03:24:13.296Z,6.80
2023-03-19T03:26:40.391Z,5.68
2023-03-19T03:29:07.046Z,6.32
2023-03-19T03:31:34.764Z,6.80
2023-03-19T03:34:01.669Z,7.78
2023-03-19T03:36:28.781Z,6.15
2023-03-19T03:38:55.656Z,6.30
2023-03-19T03:41:22.605Z,8.98
2023-03-19T03:43:49.866Z,6.40
2023-03-19T03:46:16.426Z,6.55
2023-03-19T03:48:43.041Z,6.00
2023-03-19T03:51:10.118Z,5.90
2023-03-19T03:53:36.706Z,7.43
2023-03-19T03:56:04.747Z,7.10
2023-03-19T03:58:31.650Z,6.55
2023-03-19T04:00:58.251Z,7.68
2023-03-19T04:03:25.308Z,6.22
2023-03-19T04:05:52.636Z,7.30
2023-03-19T04:08:21.252Z,7.83
2023-03-19T04:10:47.864Z,7.00
2023-03-19T04:13:14.899Z,8.43
2023-03-19T04:15:42.954Z,6.18
2023-03-19T04:18:10.536Z,8.25
2023-03-19T04:20:37.573Z,6.87
2023-03-19T04:23:04.090Z,6.35
2023-03-19T04:25:30.922Z,8.38
2023-03-19T04:27:58.542Z,8.00
2023-03-19T04:30:27.665Z,10.00
2023-03-19T04:32:54.328Z,8.57
2023-03-19T04:35:21.478Z,9.20
2023-03-19T04:37:48.865Z,7.70
2023-03-19T04:40:18.433Z,7.32
2023-03-19T04:42:45.663Z,7.28
2023-03-19T04:45:21.022Z,8.77
2023-03-19T04:47:47.947Z,7.88
2023-03-19T04:50:15.434Z,8.95
2023-03-19T04:52:43.854Z,8.80
2023-03-19T04:55:11.796Z,9.18
2023-03-19T04:57:49.783Z,8.73
2023-03-19T05:00:20.505Z,11.90
2023-03-19T05:02:48.099Z,10.77
2023-03-19T05:05:15.044Z,11.50
2023-03-19T05:07:42.297Z,9.32
2023-03-19T05:10:11.541Z,11.47
2023-03-19T05:12:38.419Z,9.70
2023-03-19T05:15:07.163Z,9.95
2023-03-19T05:17:38.043Z,11.25
2023-03-19T05:20:14.334Z,11.20
2023-03-19T05:22:47.469Z,14.77
2023-03-19T05:25:15.756Z,10.90
2023-03-19T05:27:43.800Z,11.73
2023-03-19T05:30:18.298Z,13.52
2023-03-19T05:33:03.551Z,12.43
2023-03-19T05:35:35.540Z,11.40
2023-03-19T05:38:05.232Z,11.98
2023-03-19T05:40:34.980Z,14.50
2023-03-19T05:43:12.137Z,13.80
2023-03-19T05:45:39.792Z,14.35
2023-03-19T05:48:14.567Z,13.17
2023-03-19T05:50:44.345Z,15.18
2023-03-19T05:53:21.513Z,14.13
2023-03-19T05:56:08.224Z,14.52
2023-03-19T05:58:44.509Z,17.77
2023-03-19T06:01:14.311Z,12.60
2023-03-19T06:03:41.023Z,15.55
2023-03-19T06:06:08.947Z,14.48
2023-03-19T06:08:40.855Z,13.18
2023-03-19T06:11:17.205Z,13.60
2023-03-19T06:13:49.207Z,13.73
2023-03-19T06:16:17.213Z,14.85
2023-03-19T06:18:50.936Z,11.23
2023-03-19T06:21:17.929Z,13.30
2023-03-19T06:23:44.604Z,14.07
2023-03-19T06:26:14.616Z,14.10
2023-03-19T06:28:50.454Z,15.43
2023-03-19T06:31:17.550Z,16.42
2023-03-19T06:33:54.112Z,14.65
2023-03-19T06:36:22.348Z,16.45
2023-03-19T06:38:49.004Z,13.93
2023-03-19T06:41:16.352Z,17.17
2023-03-19T06:43:43.469Z,18.60
2023-03-19T06:46:11.737Z,15.82
2023-03-19T06:48:38.962Z,14.07
2023-03-19T06:51:05.942Z,17.00
2023-03-19T06:53:32.775Z,17.48
2023-03-19T06:55:59.297Z,17.35
2023-03-19T06:58:25.847Z,17.52
2023-03-19T07:00:52.529Z,17.80
2023-03-19T07:03:19.043Z,16.77
2023-03-19T07:05:45.572Z,17.92
2023-03-19T07:08:12.373Z,17.38
2023-03-19T07:10:39.122Z,19.52
2023-03-19T07:13:06.287Z,18.38
2023-03-19T07:15:33.179Z,17.07
2023-03-19T07:17:59.757Z,18.75
2023-03-19T07:20:26.454Z,18.45
2023-03-19T07:22:53.298Z,19.23
2023-03-19T07:25:20.539Z,19.45
2023-03-19T07:27:47.183Z,19.37
2023-03-19T07:30:14.712Z,17.38
2023-03-19T07:32:41.313Z,18.80
2023-03-19T07:35:09.431Z,17.50
2023-03-19T07:37:37.121Z,18.90
2023-03-19T07:40:03.769Z,18.43
2023-03-19T07:42:30.601Z,19.58
2023-03-19T07:44:57.128Z,21.45
2023-03-19T07:47:28.891Z,17.92
2023-03-19T07:49:56.943Z,19.27
2023-03-19T07:52:24.522Z,22.43
2023-03-19T07:54:51.054Z,20.10
2023-03-19T07:57:17.836Z,23.27
2023-03-19T07:59:44.353Z,22.45
2023-03-19T08:02:12.294Z,21.88
2023-03-19T08:04:39.289Z,23.07
2023-03-19T08:07:06.924Z,22.55
2023-03-19T08:09:34.041Z,24.63
2023-03-19T08:12:00.679Z,21.27
2023-03-19T08:14:27.225Z,21.23
2023-03-19T08:16:53.714Z,22.40
2023-03-19T08:19:20.251Z,25.67
2023-03-19T08:21:46.926Z,23.17
2023-03-19T08:24:13.456Z,21.48
2023-03-19T08:26:40.278Z,22.67
2023-03-19T08:29:07.073Z,22.87
2023-03-19T08:31:33.602Z,22.45
2023-03-19T08:34:02.796Z,19.15
2023-03-19T08:36:29.482Z,21.80
2023-03-19T08:38:56.523Z,19.90
2023-03-19T08:41:23.691Z,21.07
2023-03-19T08:43:50.176Z,20.10
2023-03-19T08:46:17.013Z,22.27
2023-03-19T08:48:44.005Z,18.77
2023-03-19T08:51:10.825Z,18.13
2023-03-19T08:53:39.524Z,21.47
2023-03-19T08:56:07.897Z,20.20
2023-03-19T08:58:34.811Z,19.65
2023-03-19T09:01:07.244Z,20.65
2023-03-19T09:03:33.783Z,20.52
2023-03-19T09:06:01.977Z,23.10
2023-03-19T09:08:29.600Z,22.83
2023-03-19T09:10:56.650Z,23.17
2023-03-19T09:13:23.969Z,22.00
2023-03-19T09:15:51.336Z,22.42
2023-03-19T09:18:20.423Z,20.80
2023-03-19T09:20:47.767Z,23.27
2023-03-19T09:23:14.332Z,21.92
2023-03-19T09:25:41.218Z,22.17
2023-03-19T09:28:07.909Z,22.45
2023-03-19T09:30:34.626Z,22.47
2023-03-19T09:33:01.513Z,20.98
2023-03-19T09:35:31.302Z,19.40
2023-03-19T09:37:58.813Z,20.48
2023-03-19T09:40:33.487Z,18.10
2023-03-19T09:43:32.995Z,19.17
2023-03-19T09:46:01.908Z,18.08
2023-03-19T09:48:57.575Z,22.70
2023-03-19T09:51:30.826Z,21.85
2023-03-19T09:54:01.411Z,23.30
2023-03-19T09:56:28.042Z,21.13
2023-03-19T09:58:54.794Z,21.55
2023-03-19T10:01:27.892Z,20.63
2023-03-19T10:04:17.758Z,19.48
2023-03-19T10:06:44.335Z,20.65
2023-03-19T10:09:26.982Z,20.77
2023-03-19T10:12:04.707Z,20.17
2023-03-19T10:14:52.773Z,18.13
2023-03-19T10:17:25.989Z,18.02
2023-03-19T10:19:58.306Z,17.85
2023-03-19T10:22:43.635Z,17.60
2023-03-19T10:25:16.320Z,19.63
2023-03-19T10:27:45.693Z,17.92
2023-03-19T10:30:16.679Z,19.65
2023-03-19T10:32:45.976Z,16.13
2023-03-19T10:35:19.899Z,15.67
2023-03-19T10:37:48.435Z,17.80
2023-03-19T10:40:22.249Z,17.10
2023-03-19T10:43:18.054Z,16.02
2023-03-19T10:45:44.561Z,16.13
2023-03-19T10:48:17.044Z,16.43
2023-03-19T10:50:52.757Z,17.17
2023-03-19T10:53:19.223Z,14.75
2023-03-19T10:56:03.687Z,14.55
2023-03-19T10:58:32.148Z,15.98
2023-03-19T11:01:02.744Z,14.83
2023-03-19T11:03:38.642Z,16.00
2023-03-19T11:06:07.715Z,17.83
2023-03-19T11:08:36.303Z,18.10
2023-03-19T11:11:03.245Z,15.02
2023-03-19T11:13:30.232Z,16.30
2023-03-19T11:16:01.108Z,15.98
2023-03-19T11:18:30.586Z,14.70
2023-03-19T11:21:05.378Z,17.42
2023-03-19T11:23:40.525Z,17.23
2023-03-19T11:26:07.564Z,14.20
2023-03-19T11:28:37.405Z,15.57
2023-03-19T11:31:44.583Z,12.80
2023-03-19T11:34:26.324Z,14.38
2023-03-19T11:37:13.747Z,15.55
2023-03-19T11:39:57.206Z,16.13
2023-03-19T11:42:32.489Z,15.02
2023-03-19T11:45:40.680Z,15.35
2023-03-19T11:48:36.165Z,15.07
2023-03-19T11:51:20.134Z,14.65
2023-03-19T11:54:21.789Z,14.80
2023-03-19T11:57:11.425Z,14.07
2023-03-19T12:00:21.092Z,13.48
2023-03-19T12:03:13.077Z,13.65
2023-03-19T12:05:53.672Z,12.18
2023-03-19T12:08:22.818Z,10.87
2023-03-19T12:11:16.796Z,9.93
2023-03-19T12:14:33.837Z,11.80
2023-03-19T12:17:21.350Z,10.02
2023-03-19T12:20:04.104Z,12.48
2023-03-19T12:22:45.369Z,10.70
2023-03-19T12:25:33.364Z,10.45
2023-03-19T12:28:14.340Z,10.35
2023-03-19T12:31:16.995Z,10.75
2023-03-19T12:33:56.189Z,10.82
2023-03-19T12:36:30.101Z,10.00
2023-03-19T12:39:05.253Z,11.23
2023-03-19T12:41:34.747Z,11.85
2023-03-19T12:44:04.353Z,11.68
2023-03-19T12:46:49.066Z,13.25
2023-03-19T12:49:25.697Z,12.23
2023-03-19T12:51:57.274Z,14.35
2023-03-19T12:54:28.504Z,14.95
2023-03-19T12:56:59.999Z,13.98
2023-03-19T12:59:48.262Z,13.88
2023-03-19T13:02:35.449Z,13.37
2023-03-19T13:05:32.291Z,16.30
2023-03-19T13:08:27.697Z,14.43
2023-03-19T13:10:54.334Z,13.23
2023-03-19T13:13:45.054Z,13.68
2023-03-19T13:16:24.040Z,22.33
2023-03-19T13:19:02.304Z,17.00
2023-03-19T13:21:33.075Z,20.73
2023-03-19T13:24:02.780Z,17.60
2023-03-19T13:26:29.629Z,17.17
2023-03-19T13:29:06.860Z,14.67
2023-03-19T13:31:35.227Z,16.25
2023-03-19T13:34:17.998Z,17.27
2023-03-19T13:36:48.186Z,15.82
2023-03-19T13:39:19.650Z,16.80
2023-03-19T13:41:49.080Z,18.37
2023-03-19T13:44:16.132Z,16.08
2023-03-19T13:46:45.301Z,18.88
2023-03-19T13:49:29.951Z,14.60
2023-03-19T13:52:01.554Z,14.07
2023-03-19T13:54:38.915Z,15.40
2023-03-19T13:57:14.653Z,15.23
2023-03-19T13:59:44.724Z,15.05
2023-03-19T14:02:26.410Z,16.70
2023-03-19T14:05:02.561Z,16.30
2023-03-19T14:07:36.923Z,16.10
2023-03-19T14:10:06.912Z,18.67
2023-03-19T14:12:36.332Z,16.10
2023-03-19T14:15:17.968Z,16.30
2023-03-19T14:17:50.481Z,19.95
2023-03-19T14:20:31.466Z,14.90
2023-03-19T14:23:37.655Z,14.63
2023-03-19T14:26:12.875Z,14.63
2023-03-19T14:29:00.761Z,13.90
2023-03-19T14:31:30.931Z,12.93
2023-03-19T14:34:16.813Z,12.47
2023-03-19T14:36:50.118Z,17.05
2023-03-19T14:39:29.467Z,14.85
2023-03-19T14:42:08.014Z,15.43
2023-03-19T14:45:13.890Z,12.27
2023-03-19T14:48:18.230Z,13.17
2023-03-19T14:51:35.444Z,12.77
2023-03-19T14:54:49.128Z,12.63
2023-03-19T14:57:26.913Z,16.38
2023-03-19T14:59:54.531Z,12.77
2023-03-19T15:02:39.548Z,15.73
2023-03-19T15:05:08.631Z,15.90
2023-03-19T15:07:39.486Z,18.08
2023-03-19T15:10:13.126Z,16.70
2023-03-19T15:13:01.760Z,16.23
2023-03-19T15:16:08.928Z,12.87
2023-03-19T15:18:36.992Z,15.65
2023-03-19T15:21:05.045Z,12.60
2023-03-19T15:23:32.456Z,15.88
2023-03-19T15:26:01.805Z,16.50
2023-03-19T15:28:38.468Z,16.63
2023-03-19T15:31:28.521Z,16.60
2023-03-19T15:33:53.619Z,16.75
2023-03-19T15:36:32.833Z,14.63
2023-03-19T15:39:05.041Z,17.38
2023-03-19T15:41:35.371Z,19.70
2023-03-19T15:44:08.233Z,16.35
2023-03-19T15:46:39.017Z,15.80
2023-03-19T15:49:05.580Z,16.83
2023-03-19T15:51:33.017Z,16.02
2023-03-19T15:54:00.689Z,15.30
2023-03-19T15:56:27.772Z,16.95
2023-03-19T15:58:57.219Z,15.55
2023-03-19T16:01:24.387Z,15.10
2023-03-19T16:03:58.317Z,16.50
2023-03-19T16:06:28.523Z,15.60
2023-03-19T16:08:56.854Z,15.50
2023-03-19T16:11:29.945Z,13.60
2023-03-19T16:14:14.594Z,14.55
2023-03-19T16:16:42.097Z,13.25
2023-03-19T16:19:29.123Z,15.00
2023-03-19T16:21:56.182Z,15.20
2023-03-19T16:24:34.272Z,14.48
2023-03-19T16:27:13.178Z,15.02
2023-03-19T16:29:48.361Z,14.52
2023-03-19T16:32:21.245Z,17.07
2023-03-19T16:35:06.663Z,15.82
2023-03-19T16:37:43.473Z,17.38
2023-03-19T16:40:13.239Z,14.35
2023-03-19T16:42:44.162Z,14.88
2023-03-19T16:45:24.928Z,14.63
2023-03-19T16:47:53.550Z,16.35
2023-03-19T16:50:22.110Z,18.15
2023-03-19T16:52:49.293Z,17.50
2023-03-19T16:55:32.745Z,16.38
2023-03-19T16:58:05.749Z,18.83
2023-03-19T17:00:33.385Z,15.23
2023-03-19T17:03:00.475Z,19.42
2023-03-19T17:05:28.698Z,17.48
2023-03-19T17:07:55.556Z,17.35
2023-03-19T17:10:25.114Z,15.53
2023-03-19T17:12:54.631Z,16.77
2023-03-19T17:15:38.305Z,16.40
2023-03-19T17:18:15.934Z,15.73
2023-03-19T17:20:50.982Z,19.77
2023-03-19T17:23:18.180Z,17.40
2023-03-19T17:25:45.571Z,20.60
2023-03-19T17:28:12.208Z,18.67
2023-03-19T17:30:39.386Z,19.88
2023-03-19T17:33:06.108Z,21.48
2023-03-19T17:35:33.969Z,23.97
2023-03-19T17:38:00.711Z,21.10
2023-03-19T17:40:28.013Z,22.13
2023-03-19T17:42:55.876Z,21.95
2023-03-19T17:45:29.654Z,21.42
2023-03-19T17:47:58.130Z,22.50
2023-03-19T17:50:30.521Z,19.33
2023-03-19T17:52:57.523Z,23.20
2023-03-19T17:55:29.600Z,23.45
2023-03-19T17:57:56.755Z,23.25
2023-03-19T18:00:24.367Z,20.83
2023-03-19T18:02:54.878Z,24.60
2023-03-19T18:05:23.957Z,26.10
2023-03-19T18:07:54.499Z,25.00
2023-03-19T18:10:27.497Z,25.25
2023-03-19T18:12:54.768Z,29.20
2023-03-19T18:15:22.615Z,25.52
2023-03-19T18:17:52.865Z,27.60
2023-03-19T18:20:22.978Z,31.60
2023-03-19T18:22:50.043Z,33.33
2023-03-19T18:25:19.460Z,30.00
2023-03-19T18:27:46.606Z,32.70
2023-03-19T18:30:16.131Z,30.00
2023-03-19T18:32:47.126Z,34.25
2023-03-19T18:35:24.433Z,35.13
2023-03-19T18:37:53.106Z,35.47
2023-03-19T18:40:22.284Z,35.63
2023-03-19T18:42:49.655Z,35.63
2023-03-19T18:45:17.676Z,38.03
2023-03-19T18:47:46.883Z,38.25
2023-03-19T18:50:17.233Z,38.53
2023-03-19T18:52:45.401Z,38.97
2023-03-19T18:55:12.647Z,34.90
2023-03-19T18:57:52.653Z,36.08
2023-03-19T19:00:23.538Z,37.60
2023-03-19T19:02:50.994Z,41.90
2023-03-19T19:05:23.429Z,38.80
2023-03-19T19:07:53.641Z,40.53
2023-03-19T19:10:20.286Z,41.78
2023-03-19T19:12:52.302Z,41.13
2023-03-19T19:15:39.181Z,36.30
2023-03-19T19:18:16.051Z,38.33
2023-03-19T19:20:42.641Z,37.35
2023-03-19T19:23:10.194Z,39.30
2023-03-19T19:25:38.270Z,36.63
2023-03-19T19:28:11.424Z,36.10
2023-03-19T19:30:39.055Z,39.15
2023-03-19T19:33:15.448Z,34.53
2023-03-19T19:35:42.118Z,38.47
2023-03-19T19:38:09.041Z,39.47
2023-03-19T19:40:36.719Z,33.27
2023-03-19T19:43:03.576Z,34.20
2023-03-19T19:45:34.516Z,39.75
2023-03-19T19:48:01.301Z,38.40
2023-03-19T19:50:28.583Z,33.80
2023-03-19T19:52:56.379Z,31.37
2023-03-19T19:55:24.854Z,30.98
2023-03-19T19:57:52.648Z,27.50
2023-03-19T20:00:22.917Z,30.85
2023-03-19T20:02:50.882Z,27.65
2023-03-19T20:05:22.819Z,29.33
2023-03-19T20:07:55.845Z,27.92
2023-03-19T20:10:24.587Z,29.67
2023-03-19T20:12:53.632Z,28.20
2023-03-19T20:15:29.815Z,25.55
2023-03-19T20:17:57.013Z,25.40
2023-03-19T20:20:32.472Z,24.92
2023-03-19T20:23:01.504Z,27.88
2023-03-19T20:25:30.631Z,24.77
2023-03-19T20:27:59.924Z,26.90
2023-03-19T20:30:31.013Z,23.50
2023-03-19T20:32:59.378Z,27.10
2023-03-19T20:35:29.178Z,25.08
2023-03-19T20:37:57.266Z,26.20
2023-03-19T20:40:37.076Z,24.17
2023-03-19T20:43:05.811Z,22.90
2023-03-19T20:45:36.218Z,24.65
2023-03-19T20:48:04.061Z,26.20
2023-03-19T20:50:32.830Z,25.35
2023-03-19T20:53:03.948Z,28.92
2023-03-19T20:55:36.189Z,27.87
2023-03-19T20:58:11.214Z,28.55
2023-03-19T21:00:37.917Z,31.02
2023-03-19T21:03:04.594Z,31.15
2023-03-19T21:05:38.865Z,36.60
2023-03-19T21:08:12.427Z,33.77
2023-03-19T21:10:40.989Z,30.88
2023-03-19T21:13:13.284Z,33.45
2023-03-19T21:15:40.084Z,33.67
2023-03-19T21:18:07.280Z,34.22
2023-03-19T21:20:34.529Z,36.03
2023-03-19T21:23:17.040Z,34.22
2023-03-19T21:25:44.970Z,34.15
2023-03-19T21:28:28.748Z,36.30
2023-03-19T21:30:56.319Z,36.63
2023-03-19T21:33:27.269Z,38.20
2023-03-19T21:35:55.366Z,39.55
2023-03-19T21:38:22.644Z,39.40
2023-03-19T21:40:51.836Z,36.97
2023-03-19T21:43:29.819Z,39.38
2023-03-19T21:45:56.575Z,38.97
2023-03-19T21:48:33.924Z,40.15
2023-03-19T21:51:01.775Z,37.33
2023-03-19T21:53:28.765Z,42.25
2023-03-19T21:55:58.432Z,34.42
2023-03-19T21:58:34.083Z,39.00
2023-03-19T22:01:01.825Z,39.15
2023-03-19T22:03:28.894Z,38.03
2023-03-19T22:05:55.587Z,40.20
2023-03-19T22:08:24.179Z,37.85
2023-03-19T22:10:58.088Z,46.77
2023-03-19T22:13:27.729Z,43.13
2023-03-19T22:15:56.201Z,37.15
2023-03-19T22:18:22.832Z,41.85
2023-03-19T22:20:53.039Z,41.92
2023-03-19T22:23:20.540Z,44.83
2023-03-19T22:25:50.942Z,40.53
2023-03-19T22:28:31.698Z,37.30
2023-03-19T22:30:58.778Z,39.97
2023-03-19T22:33:26.724Z,45.35
2023-03-19T22:35:53.408Z,42.27
2023-03-19T22:38:22.719Z,44.95
2023-03-19T22:40:52.383Z,40.13
2023-03-19T22:43:30.416Z,42.55
2023-03-19T22:46:02.282Z,38.92
2023-03-19T22:48:28.884Z,37.70
2023-03-19T22:50:55.521Z,40.10
2023-03-19T22:53:26.130Z,38.83
2023-03-19T22:55:52.797Z,41.97
2023-03-19T22:58:19.379Z,41.38
2023-03-19T23:00:46.218Z,35.37
2023-03-19T23:03:18.692Z,34.75
2023-03-19T23:05:51.144Z,34.13
2023-03-19T23:08:18.631Z,36.33
2023-03-19T23:10:45.647Z,33.83
2023-03-19T23:13:13.873Z,31.43
2023-03-19T23:15:41.563Z,35.60
2023-03-19T23:18:22.447Z,40.38
2023-03-19T23:20:49.173Z,47.58
2023-03-19T23:23:16.794Z,46.38
2023-03-19T23:25:46.891Z,43.70
2023-03-19T23:28:26.392Z,40.13
2023-03-19T23:30:53.656Z,30.92
2023-03-19T23:33:20.879Z,28.48
2023-03-19T23:35:48.170Z,23.88
2023-03-19T23:38:15.613Z,25.73
2023-03-19T23:40:46.269Z,27.65
2023-03-19T23:43:22.645Z,30.75
2023-03-19T23:45:51.595Z,31.98
2023-03-19T23:48:27.668Z,31.85
2023-03-19T23:50:54.188Z,28.83
2023-03-19T23:53:23.468Z,33.92
2023-03-19T23:55:53.192Z,30.10
2023-03-19T23:58:20.388Z,36.45
